createdAt,value
2017-01-31T00:00:08.689Z,0
2017-01-31T00:01:19.037Z,0
2017-01-31T00:02:29.777Z,0
2017-01-31T00:03:40.123Z,0
2017-01-31T00:04:50.868Z,0
2017-01-31T00:06:01.264Z,0
2017-01-31T00:07:11.615Z,0
2017-01-31T00:08:22.365Z,0
2017-01-31T00:09:33.117Z,0
2017-01-31T00:10:43.483Z,0
2017-01-31T00:11:53.851Z,0
2017-01-31T00:13:04.207Z,0
2017-01-31T00:14:14.988Z,0
2017-01-31T00:15:25.764Z,0
2017-01-31T00:16:36.097Z,0
2017-01-31T00:17:46.083Z,0
2017-01-31T00:18:57.069Z,0
2017-01-31T00:20:07.428Z,0
2017-01-31T00:21:17.779Z,0
2017-01-31T00:22:28.126Z,0
2017-01-31T00:23:38.067Z,0
2017-01-31T00:24:48.804Z,0
2017-01-31T00:25:58.374Z,0
2017-01-31T00:27:09.108Z,0
2017-01-31T00:28:19.058Z,0
2017-01-31T00:29:29.801Z,0
2017-01-31T00:30:40.548Z,0
2017-01-31T00:31:51.295Z,0
2017-01-31T00:33:01.276Z,0
2017-01-31T00:34:12.017Z,0
2017-01-31T00:35:22.392Z,0
2017-01-31T00:36:33.144Z,0
2017-01-31T00:37:43.879Z,0
2017-01-31T00:38:54.629Z,0
2017-01-31T00:40:05.370Z,0
2017-01-31T00:41:15.723Z,0
2017-01-31T00:42:26.067Z,0
2017-01-31T00:43:36.410Z,0
2017-01-31T00:44:47.143Z,0
2017-01-31T00:45:57.099Z,0
2017-01-31T00:47:07.842Z,0
2017-01-31T00:48:18.578Z,0
2017-01-31T00:49:29.325Z,0
2017-01-31T00:50:38.908Z,0
2017-01-31T00:51:49.654Z,0
2017-01-31T00:52:59.595Z,0
2017-01-31T00:54:09.955Z,0
2017-01-31T00:55:20.703Z,0
2017-01-31T00:56:31.057Z,0
2017-01-31T00:57:41.803Z,0
2017-01-31T00:58:52.180Z,0
2017-01-31T01:00:02.134Z,0
2017-01-31T01:01:12.100Z,0
2017-01-31T01:02:22.437Z,0
2017-01-31T01:03:33.204Z,0
2017-01-31T01:04:43.979Z,0
2017-01-31T01:05:54.333Z,0
2017-01-31T01:07:05.080Z,0
2017-01-31T01:08:15.825Z,0
2017-01-31T01:09:26.183Z,0
2017-01-31T01:10:36.531Z,0
2017-01-31T01:11:47.266Z,0
2017-01-31T01:12:57.613Z,0
2017-01-31T01:14:07.569Z,0
2017-01-31T01:15:17.511Z,0
2017-01-31T01:16:28.289Z,0
2017-01-31T01:17:39.053Z,0
2017-01-31T01:18:49.000Z,0
2017-01-31T01:19:59.752Z,0
2017-01-31T01:21:10.118Z,0
2017-01-31T01:22:20.862Z,0
2017-01-31T01:23:31.208Z,0
2017-01-31T01:24:41.570Z,0
2017-01-31T01:25:52.306Z,0
2017-01-31T01:27:02.654Z,0
2017-01-31T01:28:12.837Z,0
2017-01-31T01:29:23.592Z,0
2017-01-31T01:30:33.933Z,0
2017-01-31T01:31:43.911Z,0
2017-01-31T01:32:53.859Z,0
2017-01-31T01:34:04.199Z,0
2017-01-31T01:35:14.571Z,0
2017-01-31T01:36:25.328Z,0
2017-01-31T01:37:35.684Z,0
2017-01-31T01:38:46.430Z,0
2017-01-31T01:39:56.792Z,0
2017-01-31T01:41:07.530Z,0
2017-01-31T01:42:17.875Z,0
2017-01-31T01:43:28.217Z,0
2017-01-31T01:44:38.964Z,0
2017-01-31T01:45:49.301Z,0
2017-01-31T01:47:00.048Z,0
2017-01-31T01:48:10.400Z,0
2017-01-31T01:49:21.162Z,0
2017-01-31T01:50:31.124Z,0
2017-01-31T01:51:41.857Z,0
2017-01-31T01:52:51.423Z,0
2017-01-31T01:54:02.168Z,0
2017-01-31T01:55:12.932Z,0
2017-01-31T01:56:23.685Z,0
2017-01-31T01:57:34.431Z,0
2017-01-31T01:58:44.390Z,0
2017-01-31T01:59:54.750Z,0
2017-01-31T02:01:05.508Z,0
2017-01-31T02:02:16.249Z,0
2017-01-31T02:03:26.590Z,0
2017-01-31T02:04:36.925Z,0
2017-01-31T02:05:47.270Z,0
2017-01-31T02:06:57.619Z,0
2017-01-31T02:08:08.387Z,0
2017-01-31T02:09:18.736Z,0
2017-01-31T02:10:29.114Z,0
2017-01-31T02:11:39.459Z,0
2017-01-31T02:12:50.211Z,0
2017-01-31T02:14:00.974Z,0
2017-01-31T02:15:10.954Z,0
2017-01-31T02:16:21.702Z,0
2017-01-31T02:17:32.063Z,0
2017-01-31T02:18:42.829Z,0
2017-01-31T02:19:53.176Z,0
2017-01-31T02:21:03.525Z,0
2017-01-31T02:22:14.271Z,0
2017-01-31T02:23:24.295Z,0
2017-01-31T02:24:35.040Z,0
2017-01-31T02:25:44.984Z,0
2017-01-31T02:26:55.337Z,0
2017-01-31T02:28:05.683Z,0
2017-01-31T02:29:16.425Z,0
2017-01-31T02:30:26.388Z,0
2017-01-31T02:31:37.133Z,0
2017-01-31T02:32:47.891Z,0
2017-01-31T02:33:58.647Z,0
2017-01-31T02:35:09.039Z,0
2017-01-31T02:36:19.403Z,0
2017-01-31T02:37:29.787Z,0
2017-01-31T02:38:39.757Z,0
2017-01-31T02:39:50.109Z,0
2017-01-31T02:41:00.863Z,0
2017-01-31T02:42:10.417Z,0
2017-01-31T02:43:20.369Z,0
2017-01-31T02:44:31.128Z,0
2017-01-31T02:45:41.074Z,0
2017-01-31T02:46:51.416Z,0
2017-01-31T02:48:02.157Z,0
2017-01-31T02:49:12.528Z,0
2017-01-31T02:50:22.870Z,0
2017-01-31T02:51:33.612Z,0
2017-01-31T02:52:43.979Z,0
2017-01-31T02:53:54.332Z,0
2017-01-31T02:55:05.070Z,0
2017-01-31T02:56:15.816Z,0
2017-01-31T02:57:26.641Z,0
2017-01-31T02:58:37.044Z,0
2017-01-31T02:59:47.771Z,0
2017-01-31T03:00:58.511Z,0
2017-01-31T03:32:43.857Z,0
2017-01-31T03:33:54.605Z,0
2017-01-31T03:35:04.945Z,0
2017-01-31T03:36:15.309Z,0
2017-01-31T03:37:25.638Z,0
2017-01-31T03:38:35.985Z,0
2017-01-31T03:39:46.333Z,0
2017-01-31T03:40:57.103Z,0
2017-01-31T03:42:07.834Z,0
2017-01-31T03:43:18.563Z,0
2017-01-31T03:44:29.310Z,0
2017-01-31T03:45:39.664Z,0
2017-01-31T03:46:50.404Z,0
2017-01-31T03:48:01.161Z,0
2017-01-31T03:49:11.498Z,0
2017-01-31T03:50:22.223Z,0
2017-01-31T03:51:32.965Z,0
2017-01-31T03:52:43.703Z,0
2017-01-31T03:53:54.449Z,0
2017-01-31T03:55:04.801Z,0
2017-01-31T03:56:15.153Z,0
2017-01-31T03:57:25.110Z,0
2017-01-31T03:58:35.454Z,0
2017-01-31T03:59:45.789Z,0
2017-01-31T04:00:56.138Z,0
2017-01-31T04:02:06.485Z,0
2017-01-31T04:03:16.837Z,0
2017-01-31T04:04:26.384Z,0
2017-01-31T04:05:37.140Z,0
2017-01-31T04:06:47.096Z,0
2017-01-31T04:07:57.065Z,0
2017-01-31T04:09:07.016Z,0
2017-01-31T04:10:17.361Z,0
2017-01-31T04:11:27.705Z,0
2017-01-31T04:12:37.665Z,0
2017-01-31T04:13:48.015Z,0
2017-01-31T04:14:58.760Z,0
2017-01-31T04:16:09.108Z,0
2017-01-31T04:17:19.851Z,0
2017-01-31T04:18:30.628Z,0
2017-01-31T04:19:41.368Z,0
2017-01-31T04:20:51.720Z,0
2017-01-31T04:22:02.459Z,0
2017-01-31T04:23:12.796Z,0
2017-01-31T04:24:22.752Z,0
2017-01-31T04:25:32.701Z,0
2017-01-31T04:26:43.449Z,0
2017-01-31T04:27:53.796Z,0
2017-01-31T04:29:04.541Z,0
2017-01-31T04:30:14.928Z,0
2017-01-31T04:31:24.879Z,0
2017-01-31T04:32:34.435Z,0
2017-01-31T04:33:44.784Z,0
2017-01-31T04:34:55.536Z,0
2017-01-31T04:36:05.512Z,0
2017-01-31T04:37:16.271Z,0
2017-01-31T04:38:26.622Z,0
2017-01-31T04:39:37.360Z,0
2017-01-31T04:40:48.118Z,0
2017-01-31T04:41:58.471Z,0
2017-01-31T04:43:08.825Z,0
2017-01-31T04:44:19.186Z,0
2017-01-31T04:45:29.940Z,0
2017-01-31T04:46:40.301Z,0
2017-01-31T04:47:50.641Z,0
2017-01-31T04:49:00.985Z,0
2017-01-31T04:50:11.752Z,0
2017-01-31T04:51:22.524Z,0
2017-01-31T04:52:33.276Z,0
2017-01-31T04:53:43.228Z,0
2017-01-31T04:54:53.578Z,0
2017-01-31T04:56:03.935Z,0
2017-01-31T04:57:14.672Z,0
2017-01-31T04:58:25.022Z,0
2017-01-31T04:59:34.994Z,0
2017-01-31T05:00:45.742Z,0
2017-01-31T05:01:56.079Z,0
2017-01-31T05:03:06.424Z,0
2017-01-31T05:04:16.386Z,0
2017-01-31T05:05:26.336Z,0
2017-01-31T05:06:36.700Z,0
2017-01-31T05:07:47.042Z,0
2017-01-31T05:08:57.783Z,0
2017-01-31T05:10:08.547Z,0
2017-01-31T05:11:18.907Z,0
2017-01-31T05:12:29.268Z,0
2017-01-31T05:13:38.829Z,0
2017-01-31T05:14:49.571Z,0
2017-01-31T05:16:00.323Z,0
2017-01-31T05:17:10.279Z,0
2017-01-31T05:18:20.208Z,0
2017-01-31T05:19:30.163Z,0
2017-01-31T05:20:40.507Z,0
2017-01-31T05:21:50.846Z,0
2017-01-31T05:23:01.591Z,0
2017-01-31T05:24:11.940Z,0
2017-01-31T05:25:21.887Z,0
2017-01-31T05:26:32.635Z,0
2017-01-31T05:27:42.988Z,0
2017-01-31T05:28:52.942Z,0
2017-01-31T05:30:03.296Z,0
2017-01-31T05:31:13.644Z,0
2017-01-31T05:32:23.993Z,0
2017-01-31T05:33:34.376Z,0
2017-01-31T05:34:44.323Z,0
2017-01-31T05:35:55.060Z,0
2017-01-31T05:37:05.422Z,0
2017-01-31T05:38:15.762Z,0
2017-01-31T05:39:26.113Z,0
2017-01-31T05:40:36.849Z,0
2017-01-31T05:41:47.600Z,0
2017-01-31T05:42:57.949Z,0
2017-01-31T05:44:08.688Z,0
2017-01-31T05:45:19.048Z,0
2017-01-31T05:46:29.404Z,0
2017-01-31T05:47:39.765Z,0
2017-01-31T05:48:50.107Z,4
2017-01-31T05:50:00.469Z,4
2017-01-31T05:51:10.059Z,4
2017-01-31T05:52:20.802Z,4
2017-01-31T05:53:31.143Z,4
2017-01-31T05:54:41.902Z,4
2017-01-31T05:55:52.639Z,0
2017-01-31T05:57:02.985Z,0
2017-01-31T05:58:13.341Z,4
2017-01-31T05:59:24.096Z,4
2017-01-31T06:00:34.498Z,4
2017-01-31T06:01:45.251Z,4
2017-01-31T06:02:56.003Z,4
2017-01-31T06:04:06.751Z,4
2017-01-31T06:05:17.529Z,8
2017-01-31T06:06:27.887Z,4
2017-01-31T06:07:38.230Z,4
2017-01-31T06:08:48.580Z,8
2017-01-31T06:09:59.334Z,8
2017-01-31T06:11:09.284Z,12
2017-01-31T06:12:20.046Z,8
2017-01-31T06:13:30.798Z,16
2017-01-31T06:14:41.555Z,16
2017-01-31T06:15:52.292Z,20
2017-01-31T06:17:03.034Z,24
2017-01-31T06:18:12.980Z,24
2017-01-31T06:19:22.936Z,28
2017-01-31T06:20:33.681Z,28
2017-01-31T06:21:44.415Z,36
2017-01-31T06:22:54.790Z,40
2017-01-31T06:24:04.729Z,44
2017-01-31T06:25:15.473Z,52
2017-01-31T06:26:26.232Z,52
2017-01-31T06:27:36.993Z,56
2017-01-31T06:28:47.356Z,60
2017-01-31T06:29:57.703Z,76
2017-01-31T06:31:07.653Z,84
2017-01-31T06:32:17.613Z,104
2017-01-31T06:33:27.564Z,112
2017-01-31T06:34:38.321Z,120
2017-01-31T06:35:49.111Z,140
2017-01-31T06:36:59.442Z,148
2017-01-31T06:38:09.785Z,160
2017-01-31T06:39:20.536Z,168
2017-01-31T06:40:30.503Z,176
2017-01-31T06:41:41.255Z,164
2017-01-31T06:42:51.606Z,160
2017-01-31T06:44:01.949Z,156
2017-01-31T06:45:12.339Z,172
2017-01-31T06:46:21.894Z,192
2017-01-31T06:47:32.646Z,196
2017-01-31T06:48:43.374Z,204
2017-01-31T06:49:53.335Z,228
2017-01-31T06:51:04.074Z,216
2017-01-31T06:52:13.640Z,228
2017-01-31T06:53:24.396Z,264
2017-01-31T06:54:33.967Z,284
2017-01-31T06:55:44.309Z,304
2017-01-31T06:56:54.656Z,328
2017-01-31T06:58:04.999Z,372
2017-01-31T06:59:15.340Z,408
2017-01-31T07:00:25.296Z,404
2017-01-31T07:01:35.634Z,384
2017-01-31T07:02:46.375Z,380
2017-01-31T07:03:56.727Z,376
2017-01-31T07:05:06.289Z,416
2017-01-31T07:06:16.245Z,388
2017-01-31T07:07:26.976Z,408
2017-01-31T07:08:37.324Z,416
2017-01-31T07:09:48.061Z,408
2017-01-31T07:10:58.802Z,456
2017-01-31T07:12:09.180Z,500
2017-01-31T07:13:19.522Z,528
2017-01-31T07:14:30.267Z,532
2017-01-31T07:15:40.624Z,556
2017-01-31T07:16:50.587Z,552
2017-01-31T07:18:00.923Z,572
2017-01-31T07:19:11.683Z,580
2017-01-31T07:20:22.427Z,568
2017-01-31T07:21:33.183Z,572
2017-01-31T07:22:43.556Z,556
2017-01-31T07:23:53.535Z,560
2017-01-31T07:25:03.884Z,560
2017-01-31T07:26:14.240Z,588
2017-01-31T07:27:24.592Z,652
2017-01-31T07:28:34.965Z,636
2017-01-31T07:29:45.716Z,648
2017-01-31T07:30:56.082Z,668
2017-01-31T07:32:06.843Z,636
2017-01-31T07:33:17.182Z,656
2017-01-31T07:34:27.929Z,656
2017-01-31T07:35:38.278Z,708
2017-01-31T07:36:49.037Z,752
2017-01-31T07:37:59.392Z,784
2017-01-31T07:39:09.760Z,776
2017-01-31T07:40:20.515Z,812
2017-01-31T07:41:30.879Z,836
2017-01-31T07:42:41.465Z,856
2017-01-31T07:43:52.211Z,888
2017-01-31T07:45:02.166Z,856
2017-01-31T07:46:12.931Z,924
2017-01-31T07:47:22.890Z,988
2017-01-31T07:48:33.227Z,880
2017-01-31T07:49:43.185Z,784
2017-01-31T07:50:53.137Z,868
2017-01-31T07:52:03.869Z,924
2017-01-31T07:53:14.219Z,868
2017-01-31T07:54:24.985Z,780
2017-01-31T07:55:35.722Z,744
2017-01-31T07:56:46.488Z,764
2017-01-31T07:57:57.247Z,832
2017-01-31T07:59:07.983Z,896
2017-01-31T08:00:18.747Z,856
2017-01-31T08:01:29.086Z,884
2017-01-31T08:02:39.457Z,832
2017-01-31T08:03:50.224Z,1000
2017-01-31T08:05:00.579Z,960
2017-01-31T08:06:10.924Z,948
2017-01-31T08:07:21.279Z,924
2017-01-31T08:08:32.026Z,904
2017-01-31T08:09:42.380Z,804
2017-01-31T08:10:53.124Z,760
2017-01-31T08:12:03.072Z,760
2017-01-31T08:13:13.418Z,816
2017-01-31T08:14:23.376Z,940
2017-01-31T08:15:33.728Z,1096
2017-01-31T08:16:44.080Z,1064
2017-01-31T08:17:54.448Z,1020
2017-01-31T08:19:04.406Z,952
2017-01-31T08:20:14.364Z,984
2017-01-31T08:21:25.111Z,984
2017-01-31T08:22:35.868Z,1008
2017-01-31T08:23:46.610Z,1024
2017-01-31T08:24:57.345Z,1080
2017-01-31T08:26:07.298Z,1108
2017-01-31T08:27:17.648Z,1160
2017-01-31T08:28:28.011Z,1360
2017-01-31T08:29:38.749Z,1480
2017-01-31T08:30:49.100Z,1476
2017-01-31T08:31:59.846Z,1512
2017-01-31T08:33:10.206Z,1596
2017-01-31T08:34:20.974Z,1632
2017-01-31T08:35:31.345Z,1580
2017-01-31T08:36:41.713Z,1624
2017-01-31T08:37:52.311Z,1620
2017-01-31T08:39:03.073Z,1792
2017-01-31T08:40:13.827Z,1932
2017-01-31T08:41:24.171Z,2068
2017-01-31T08:42:34.521Z,2132
2017-01-31T08:43:45.530Z,2152
2017-01-31T08:44:55.490Z,2116
2017-01-31T08:46:05.448Z,2136
2017-01-31T08:47:15.806Z,2396
2017-01-31T08:48:26.151Z,2160
2017-01-31T08:49:36.500Z,2232
2017-01-31T08:50:47.249Z,2128
2017-01-31T08:51:58.042Z,2240
2017-01-31T08:53:08.399Z,2064
2017-01-31T08:54:18.754Z,1868
2017-01-31T08:55:29.505Z,1732
2017-01-31T08:56:39.852Z,1680
2017-01-31T08:57:50.618Z,1836
2017-01-31T08:59:01.358Z,1668
2017-01-31T09:00:11.720Z,1616
2017-01-31T09:01:21.680Z,1656
2017-01-31T09:02:32.033Z,1620
2017-01-31T09:03:42.384Z,1548
2017-01-31T09:04:52.741Z,1464
2017-01-31T09:06:03.088Z,1436
2017-01-31T09:07:13.041Z,1372
2017-01-31T09:08:23.438Z,1332
2017-01-31T09:09:34.231Z,1448
2017-01-31T09:10:44.978Z,1376
2017-01-31T09:11:55.342Z,1352
2017-01-31T09:13:06.082Z,1416
2017-01-31T09:14:16.840Z,1540
2017-01-31T09:15:27.577Z,1824
2017-01-31T09:16:38.332Z,1820
2017-01-31T09:17:48.673Z,2044
2017-01-31T09:18:59.418Z,1968
2017-01-31T09:20:10.159Z,1800
2017-01-31T09:21:20.505Z,1644
2017-01-31T09:22:30.846Z,1616
2017-01-31T09:23:41.604Z,1556
2017-01-31T09:24:51.949Z,1632
2017-01-31T09:26:02.713Z,1724
2017-01-31T09:27:13.054Z,1772
2017-01-31T09:28:23.810Z,1796
2017-01-31T09:29:34.157Z,1856
2017-01-31T09:30:44.513Z,2032
2017-01-31T09:31:55.261Z,1800
2017-01-31T09:33:05.232Z,1664
2017-01-31T09:34:15.573Z,1668
2017-01-31T09:35:25.955Z,1592
2017-01-31T09:36:36.305Z,1484
2017-01-31T09:37:47.049Z,1532
2017-01-31T09:38:57.012Z,1508
2017-01-31T09:40:07.376Z,1584
2017-01-31T09:41:18.129Z,1484
2017-01-31T09:42:28.088Z,1500
2017-01-31T09:43:38.468Z,1560
2017-01-31T09:44:49.227Z,1724
2017-01-31T09:45:59.571Z,1816
2017-01-31T09:47:10.558Z,1900
2017-01-31T09:48:20.943Z,1956
2017-01-31T09:49:31.691Z,1884
2017-01-31T09:50:42.050Z,1884
2017-01-31T09:51:52.806Z,1856
2017-01-31T09:53:03.153Z,1872
2017-01-31T09:54:13.933Z,2012
2017-01-31T09:55:24.282Z,2304
2017-01-31T09:56:34.246Z,2212
2017-01-31T09:57:44.982Z,2096
2017-01-31T09:58:55.732Z,2232
2017-01-31T10:00:06.475Z,2264
2017-01-31T10:01:17.210Z,2200
2017-01-31T10:02:28.006Z,2116
2017-01-31T10:03:37.560Z,2056
2017-01-31T10:04:48.321Z,1972
2017-01-31T10:05:58.677Z,1840
2017-01-31T10:07:09.425Z,1688
2017-01-31T10:08:19.774Z,1744
2017-01-31T10:09:30.527Z,1764
2017-01-31T10:10:41.285Z,1976
2017-01-31T10:11:52.031Z,1840
2017-01-31T10:13:02.780Z,1732
2017-01-31T10:14:12.725Z,1624
2017-01-31T10:15:23.071Z,1784
2017-01-31T10:16:33.845Z,1936
2017-01-31T10:17:43.830Z,1940
2017-01-31T10:18:54.176Z,2212
2017-01-31T10:20:04.530Z,2180
2017-01-31T10:21:15.270Z,2176
2017-01-31T10:22:25.641Z,2072
2017-01-31T10:23:35.608Z,2092
2017-01-31T10:24:45.555Z,1984
2017-01-31T10:25:55.912Z,1832
2017-01-31T10:27:06.657Z,1876
2017-01-31T10:28:16.995Z,1888
2017-01-31T10:29:27.358Z,1612
2017-01-31T10:30:36.932Z,1704
2017-01-31T10:31:47.687Z,1788
2017-01-31T10:32:58.435Z,1832
2017-01-31T10:34:08.783Z,1840
2017-01-31T10:35:19.122Z,2016
2017-01-31T10:36:29.867Z,2124
2017-01-31T10:37:40.221Z,1872
2017-01-31T10:38:50.559Z,2160
2017-01-31T10:40:00.912Z,2200
2017-01-31T10:41:11.658Z,2244
2017-01-31T10:42:22.009Z,2176
2017-01-31T10:43:32.358Z,2128
2017-01-31T10:44:43.104Z,2132
2017-01-31T10:45:53.486Z,2272
2017-01-31T10:47:03.828Z,2136
2017-01-31T10:48:14.244Z,1984
2017-01-31T10:49:24.997Z,2228
2017-01-31T10:50:34.164Z,2640
2017-01-31T10:51:44.534Z,2596
2017-01-31T10:52:55.282Z,2768
2017-01-31T10:54:05.646Z,2948
2017-01-31T10:55:15.993Z,3292
2017-01-31T10:56:26.339Z,3704
2017-01-31T10:57:36.702Z,3876
2017-01-31T10:58:47.051Z,3560
2017-01-31T10:59:57.404Z,3568
2017-01-31T11:01:07.365Z,3636
2017-01-31T11:02:18.128Z,3556
2017-01-31T11:03:28.513Z,3168
2017-01-31T11:04:38.468Z,3568
2017-01-31T11:05:48.419Z,3356
2017-01-31T11:06:58.372Z,3572
2017-01-31T11:08:08.728Z,3432
2017-01-31T11:09:19.478Z,3492
2017-01-31T11:10:29.841Z,3428
2017-01-31T11:11:39.808Z,3340
2017-01-31T11:12:50.165Z,3188
2017-01-31T11:14:00.125Z,3200
2017-01-31T11:15:10.085Z,3408
2017-01-31T11:16:20.061Z,3356
2017-01-31T11:17:30.433Z,3132
2017-01-31T11:18:40.774Z,2968
2017-01-31T11:19:51.504Z,3108
2017-01-31T11:21:02.252Z,3040
2017-01-31T11:22:12.605Z,3100
2017-01-31T11:23:22.941Z,2576
2017-01-31T11:24:33.726Z,2636
2017-01-31T11:25:44.480Z,2976
2017-01-31T11:26:55.229Z,2796
2017-01-31T11:28:05.579Z,2396
2017-01-31T11:29:15.924Z,2324
2017-01-31T11:30:26.289Z,2168
2017-01-31T11:31:37.017Z,2100
2017-01-31T11:32:47.373Z,2032
2017-01-31T11:33:58.127Z,2076
2017-01-31T11:35:08.872Z,2064
2017-01-31T11:36:19.627Z,2008
2017-01-31T11:37:29.590Z,1960
2017-01-31T11:38:39.950Z,1744
2017-01-31T11:39:50.299Z,1784
2017-01-31T11:41:00.258Z,2020
2017-01-31T11:42:11.002Z,2156
2017-01-31T11:43:21.368Z,2048
2017-01-31T11:44:31.711Z,1908
2017-01-31T11:45:42.067Z,1828
2017-01-31T11:46:52.419Z,1472
2017-01-31T11:48:02.772Z,1560
2017-01-31T11:49:13.146Z,1736
2017-01-31T11:50:23.883Z,1816
2017-01-31T11:51:34.635Z,1772
2017-01-31T11:52:44.982Z,1548
2017-01-31T11:53:55.739Z,1544
2017-01-31T11:55:06.095Z,1440
2017-01-31T11:56:16.465Z,1268
2017-01-31T11:57:26.427Z,1500
2017-01-31T11:58:36.807Z,1280
2017-01-31T11:59:46.770Z,1248
2017-01-31T12:00:57.128Z,1264
2017-01-31T12:02:07.912Z,1136
2017-01-31T12:03:18.652Z,1072
2017-01-31T12:04:29.026Z,1044
2017-01-31T12:05:39.782Z,1072
2017-01-31T12:06:50.133Z,1060
2017-01-31T12:08:00.118Z,1020
2017-01-31T12:09:10.894Z,876
2017-01-31T12:10:21.282Z,800
2017-01-31T12:11:32.037Z,832
2017-01-31T12:12:42.785Z,876
2017-01-31T12:13:52.731Z,876
2017-01-31T12:15:03.081Z,848
2017-01-31T12:16:13.846Z,904
2017-01-31T12:17:23.838Z,892
2017-01-31T12:18:34.193Z,860
2017-01-31T12:19:43.756Z,852
2017-01-31T12:20:54.522Z,936
2017-01-31T12:22:04.119Z,936
2017-01-31T12:23:14.092Z,908
2017-01-31T12:24:24.045Z,952
2017-01-31T12:25:34.389Z,932
2017-01-31T12:26:44.380Z,1052
2017-01-31T12:27:54.738Z,968
2017-01-31T12:29:05.094Z,948
2017-01-31T12:30:15.836Z,944
2017-01-31T12:31:26.187Z,860
2017-01-31T12:32:36.542Z,832
2017-01-31T12:33:46.899Z,896
2017-01-31T12:34:57.299Z,908
2017-01-31T12:36:07.265Z,952
2017-01-31T12:37:17.615Z,904
2017-01-31T12:38:28.444Z,1088
2017-01-31T12:39:38.799Z,1072
2017-01-31T12:40:49.170Z,1088
2017-01-31T12:41:59.545Z,1052
2017-01-31T12:43:09.907Z,1024
2017-01-31T12:44:20.648Z,1040
2017-01-31T12:45:31.401Z,1064
2017-01-31T12:46:41.756Z,1032
2017-01-31T12:47:52.514Z,1096
2017-01-31T12:49:02.868Z,1088
2017-01-31T12:50:12.837Z,972
2017-01-31T12:51:23.613Z,936
2017-01-31T12:52:34.361Z,976
2017-01-31T12:53:44.697Z,920
2017-01-31T12:54:55.450Z,880
2017-01-31T12:56:05.799Z,868
2017-01-31T12:57:16.538Z,784
2017-01-31T12:58:27.285Z,704
2017-01-31T12:59:38.032Z,640
2017-01-31T13:00:48.373Z,624
2017-01-31T13:01:58.364Z,608
2017-01-31T13:03:08.717Z,560
2017-01-31T13:04:19.082Z,552
2017-01-31T13:05:29.039Z,596
2017-01-31T13:06:39.427Z,552
2017-01-31T13:07:50.187Z,552
2017-01-31T13:09:00.166Z,532
2017-01-31T13:10:10.940Z,528
2017-01-31T13:11:21.343Z,548
2017-01-31T13:12:32.138Z,516
2017-01-31T13:13:42.523Z,520
2017-01-31T13:14:53.331Z,540
2017-01-31T13:16:04.131Z,492
2017-01-31T13:17:13.736Z,472
2017-01-31T13:18:24.573Z,456
2017-01-31T13:19:34.980Z,464
2017-01-31T13:20:45.800Z,456
2017-01-31T13:21:56.567Z,456
2017-01-31T13:23:06.937Z,448
2017-01-31T13:24:16.898Z,452
2017-01-31T13:25:27.259Z,432
2017-01-31T13:26:37.621Z,404
2017-01-31T13:27:48.377Z,376
2017-01-31T13:28:58.734Z,360
2017-01-31T13:30:09.490Z,352
2017-01-31T13:31:19.442Z,336
2017-01-31T13:32:30.199Z,348
2017-01-31T13:33:39.765Z,364
2017-01-31T13:34:49.721Z,372
2017-01-31T13:36:00.473Z,364
2017-01-31T13:37:11.227Z,380
2017-01-31T13:38:21.973Z,380
2017-01-31T13:39:32.715Z,364
2017-01-31T13:40:44.002Z,356
2017-01-31T13:41:54.764Z,360
2017-01-31T13:43:05.590Z,364
2017-01-31T13:44:16.340Z,380
2017-01-31T13:45:25.900Z,392
2017-01-31T13:46:36.260Z,408
2017-01-31T13:47:46.626Z,432
2017-01-31T13:48:56.592Z,428
2017-01-31T13:50:07.366Z,476
2017-01-31T13:51:18.117Z,468
2017-01-31T13:52:28.471Z,476
2017-01-31T13:53:39.228Z,476
2017-01-31T13:54:49.968Z,432
2017-01-31T13:56:00.315Z,384
2017-01-31T13:57:10.281Z,336
2017-01-31T13:58:20.633Z,348
2017-01-31T13:59:31.440Z,360
2017-01-31T14:00:41.422Z,364
2017-01-31T14:01:52.173Z,356
2017-01-31T14:03:02.920Z,344
2017-01-31T14:04:12.884Z,332
2017-01-31T14:05:23.230Z,332
2017-01-31T14:06:33.608Z,304
2017-01-31T14:07:43.565Z,288
2017-01-31T14:08:53.911Z,284
2017-01-31T14:10:03.880Z,252
2017-01-31T14:11:14.248Z,252
2017-01-31T14:12:24.208Z,256
2017-01-31T14:13:34.999Z,236
2017-01-31T14:14:45.356Z,216
2017-01-31T14:15:55.730Z,236
2017-01-31T14:17:06.473Z,248
2017-01-31T14:18:17.255Z,252
2017-01-31T14:19:27.609Z,236
2017-01-31T14:20:38.360Z,240
2017-01-31T14:21:48.723Z,248
2017-01-31T14:22:59.060Z,296
2017-01-31T14:24:09.415Z,276
2017-01-31T14:25:19.771Z,276
2017-01-31T14:26:30.580Z,248
2017-01-31T14:27:41.323Z,224
2017-01-31T14:28:51.687Z,236
2017-01-31T14:30:02.431Z,228
2017-01-31T14:31:12.793Z,268
2017-01-31T14:32:23.548Z,284
2017-01-31T14:33:33.502Z,268
2017-01-31T14:34:43.844Z,288
2017-01-31T14:35:53.406Z,320
2017-01-31T14:37:04.153Z,348
2017-01-31T14:38:14.107Z,396
2017-01-31T14:39:24.859Z,436
2017-01-31T14:40:35.613Z,476
2017-01-31T14:41:45.187Z,512
2017-01-31T14:42:55.960Z,564
2017-01-31T14:44:06.721Z,636
2017-01-31T14:45:17.472Z,700
2017-01-31T14:46:28.228Z,732
2017-01-31T14:47:39.010Z,752
2017-01-31T14:48:49.758Z,764
2017-01-31T14:49:59.739Z,776
2017-01-31T14:51:10.094Z,780
2017-01-31T14:52:19.678Z,760
2017-01-31T14:53:30.433Z,700
2017-01-31T14:54:41.176Z,644
2017-01-31T14:55:51.925Z,628
2017-01-31T14:57:02.275Z,672
2017-01-31T14:58:12.658Z,740
2017-01-31T14:59:22.641Z,836
2017-01-31T15:00:33.379Z,940
2017-01-31T15:01:43.759Z,1028
2017-01-31T15:02:54.513Z,1104
2017-01-31T15:04:05.292Z,1136
2017-01-31T15:05:15.240Z,1112
2017-01-31T15:06:25.598Z,1048
2017-01-31T15:07:36.346Z,956
2017-01-31T15:08:46.704Z,872
2017-01-31T15:09:57.451Z,796
2017-01-31T15:11:08.213Z,740
2017-01-31T15:12:18.573Z,700
2017-01-31T15:13:28.927Z,688
2017-01-31T15:14:39.681Z,716
2017-01-31T15:15:49.633Z,764
2017-01-31T15:16:59.989Z,804
2017-01-31T15:18:09.952Z,792
2017-01-31T15:19:19.148Z,728
2017-01-31T15:20:29.915Z,636
2017-01-31T15:21:40.311Z,556
2017-01-31T15:22:50.694Z,512
2017-01-31T15:24:01.435Z,504
2017-01-31T15:25:12.178Z,516
2017-01-31T15:26:22.932Z,544
2017-01-31T15:27:33.288Z,580
2017-01-31T15:28:43.678Z,620
2017-01-31T15:29:53.243Z,656
2017-01-31T15:31:03.584Z,688
2017-01-31T15:32:14.341Z,700
2017-01-31T15:33:25.132Z,688
2017-01-31T15:34:35.507Z,648
2017-01-31T15:35:45.473Z,584
2017-01-31T15:36:55.814Z,500
2017-01-31T15:38:06.554Z,416
2017-01-31T15:39:17.323Z,356
2017-01-31T15:40:28.087Z,292
2017-01-31T15:41:38.435Z,240
2017-01-31T15:42:48.801Z,200
2017-01-31T15:43:59.189Z,168
2017-01-31T15:45:09.959Z,156
2017-01-31T15:46:20.301Z,140
2017-01-31T15:47:31.069Z,120
2017-01-31T15:48:41.824Z,96
2017-01-31T15:49:52.206Z,80
2017-01-31T15:51:02.563Z,68
2017-01-31T15:52:12.924Z,64
2017-01-31T15:53:23.701Z,56
2017-01-31T15:54:33.664Z,56
2017-01-31T15:55:44.425Z,48
2017-01-31T15:56:54.387Z,40
2017-01-31T15:58:03.951Z,36
2017-01-31T15:59:14.724Z,36
2017-01-31T16:00:24.682Z,36
2017-01-31T16:01:34.638Z,32
2017-01-31T16:02:45.381Z,28
2017-01-31T16:03:56.150Z,24
2017-01-31T16:05:06.506Z,20
2017-01-31T16:06:16.851Z,20
2017-01-31T16:07:27.615Z,16
2017-01-31T16:08:37.980Z,16
2017-01-31T16:09:47.944Z,12
2017-01-31T16:10:58.332Z,12
2017-01-31T16:12:08.678Z,8
2017-01-31T16:13:19.428Z,8
2017-01-31T16:14:30.189Z,8
2017-01-31T16:15:40.549Z,8
2017-01-31T16:16:50.517Z,4
2017-01-31T16:18:01.278Z,8
2017-01-31T16:19:11.627Z,4
2017-01-31T16:20:21.994Z,4
2017-01-31T16:21:32.745Z,4
2017-01-31T16:22:43.101Z,4
2017-01-31T16:23:53.866Z,4
2017-01-31T16:25:04.231Z,4
2017-01-31T16:26:14.203Z,4
2017-01-31T16:27:24.580Z,4
2017-01-31T16:28:34.945Z,4
2017-01-31T16:29:45.301Z,4
2017-01-31T16:30:55.270Z,4
2017-01-31T16:32:05.249Z,4
2017-01-31T16:33:15.205Z,4
2017-01-31T16:34:25.180Z,4
2017-01-31T16:35:35.921Z,4
2017-01-31T16:36:45.729Z,4
2017-01-31T16:37:56.487Z,4
2017-01-31T16:39:07.237Z,4
2017-01-31T16:40:18.015Z,4
2017-01-31T16:41:28.365Z,4
2017-01-31T16:42:38.733Z,4
2017-01-31T16:43:48.696Z,4
2017-01-31T16:44:59.481Z,4
2017-01-31T16:46:10.238Z,4
2017-01-31T16:47:20.985Z,4
2017-01-31T16:48:31.768Z,4
2017-01-31T16:49:42.511Z,4
2017-01-31T16:50:53.264Z,4
2017-01-31T16:52:04.017Z,4
2017-01-31T16:53:14.390Z,4
2017-01-31T16:54:24.370Z,4
2017-01-31T16:55:35.142Z,4
2017-01-31T16:56:45.885Z,4
2017-01-31T16:57:56.232Z,4
2017-01-31T16:59:06.609Z,4